Terminal Aerodrome Forecast
Issued by NWS Cleveland, OH

Home | Current Version | Previous Version | Text Only | Print | Product List | Glossary Off
Versions: 1 2 3 4 5 6 7 8 9 10 11 12 13 14 15 16

000
FTUS41 KCLE 211420 AAA
TAFCAK
TAF AMD
KCAK 211420Z 2114/2212 18012KT 6SM -SHRA BKN015 OVC060
      TEMPO 2115/2118 5SM -SHRA OVC020
     FM211900 19014KT P6SM VCSH SCT008 OVC015
     FM220000 21010KT P6SM -SHRA VCTS SCT025 BKN050CB
     FM220300 23009KT P6SM BKN040
     FM220800 24005KT 6SM BR BKN025=

USA.gov is the U.S. government's official web portal to all federal, state and local government web resources and services.